Airport details for: LGKZ (Greece)

Metar

LGKZ 111250Z 00000KT CAVOK 10/M00 Q1020

General details

ICAO: LGKZ
IATA: KZI
Name (city): Filippos
Major:
Country: Greece
vACC: Hellenic vACC
Description:

Kozani National Airport "Filippos" (IATA: KZI, ICAO: LGKZ) started operations in the 1950s. It is located 4 km SE of city of Kozani, Greece.

Scenery links:
FS9 scenery:
FSX/P3D scenery:
XP scenery:
Elevation: 2060 ft.
Transition altitude: 9000 ft.
MSA: 5900 ft.
Latitude: 40.285833
Longitude: 21.841667
LGKZ Charts
LGKZ Notams
LGKZ Online stations

Runways

Number Course Length Elevation Lat Lon ILS ILS freq ILS FAC GP
14 140° 5978ft / 1822 m 2050ft 40.290978 21.836578 - - 3.0°
32 320° 5978ft / 1822 m 1968ft 40.279164 21.848181 - - 3.0°